Huntington, New York
Current Conditions -  °F | °C
As of 1:53 PM on Friday 21 Nov 2014 (Local Time) from KFRG Reporting Station
Clear Clear  
Wind Chill: 27°   Ceiling: Unl
Heat Index: 37°   Visibility: 10mi
Dew Point:   Wind: 20mph
Humidity: 31%   Direction: 310°NW
Pressure: 30.29"   Gusts: 29mph
Location:  40.87°N, 73.42°W
Report Text: KFRG 211853Z 31017G25KT 10SM CLR 03/M13 A3029 RMK AO2 PK WND 29027/1835 SLP258 T00281128
Loading
Personal Weather Stations






























Interactive Weather Map New forecast layout! Learn more

10-Day Weather Forecast

Advertisements
Track Severe Weather on mobile